createdAt,value
2023-04-27T00:01:15.905Z,13.70
2023-04-27T00:04:07.674Z,13.60
2023-04-27T00:06:55.246Z,13.60
2023-04-27T00:09:42.667Z,13.50
2023-04-27T00:12:30.196Z,13.50
2023-04-27T00:15:17.724Z,13.50
2023-04-27T00:18:05.476Z,13.50
2023-04-27T00:20:53.073Z,13.50
2023-04-27T00:23:40.887Z,13.60
2023-04-27T00:26:28.411Z,13.50
2023-04-27T00:29:16.022Z,13.60
2023-04-27T00:32:03.833Z,13.60
2023-04-27T00:34:52.016Z,13.60
2023-04-27T00:37:39.575Z,13.80
2023-04-27T00:40:27.073Z,13.90
2023-04-27T00:43:14.899Z,14.30
2023-04-27T00:46:05.262Z,14.40
2023-04-27T00:48:52.816Z,14.70
2023-04-27T00:51:40.286Z,14.90
2023-04-27T00:54:27.984Z,14.80
2023-04-27T00:57:16.450Z,15.00
2023-04-27T01:00:07.365Z,15.00
2023-04-27T01:02:56.584Z,15.00
2023-04-27T01:05:44.524Z,15.00
2023-04-27T01:08:32.080Z,14.90
2023-04-27T01:11:19.595Z,14.80
2023-04-27T01:14:08.205Z,14.80
2023-04-27T01:16:55.898Z,14.80
2023-04-27T01:19:45.093Z,14.60
2023-04-27T01:22:32.542Z,14.60
2023-04-27T01:25:20.339Z,14.50
2023-04-27T01:28:07.902Z,14.40
2023-04-27T01:30:55.763Z,14.40
2023-04-27T01:33:43.814Z,14.40
2023-04-27T01:36:32.432Z,14.30
2023-04-27T01:39:19.950Z,14.20
2023-04-27T01:42:07.458Z,14.20
2023-04-27T01:44:54.892Z,14.20
2023-04-27T01:47:42.392Z,14.20
2023-04-27T01:50:29.992Z,14.10
2023-04-27T01:53:17.442Z,14.10
2023-04-27T01:56:07.123Z,14.30
2023-04-27T01:58:54.780Z,14.20
2023-04-27T02:01:42.336Z,14.20
2023-04-27T02:04:30.040Z,14.20
2023-04-27T02:07:17.622Z,14.20
2023-04-27T02:10:05.918Z,14.20
2023-04-27T02:12:53.398Z,14.20
2023-04-27T02:15:41.097Z,14.30
2023-04-27T02:18:28.963Z,14.10
2023-04-27T02:21:16.924Z,13.70
2023-04-27T02:24:04.601Z,14.00
2023-04-27T02:26:52.225Z,14.10
2023-04-27T02:29:39.699Z,14.20
2023-04-27T02:32:27.845Z,14.20
2023-04-27T02:35:15.614Z,14.40
2023-04-27T02:38:03.062Z,14.20
2023-04-27T02:40:57.612Z,14.20
2023-04-27T02:43:45.224Z,14.20
2023-04-27T02:46:32.874Z,14.00
2023-04-27T02:49:21.040Z,14.00
2023-04-27T02:52:09.185Z,14.00
2023-04-27T02:54:57.332Z,13.80
2023-04-27T02:57:44.806Z,14.00
2023-04-27T03:00:33.272Z,14.00
2023-04-27T03:03:21.034Z,14.00
2023-04-27T03:06:08.583Z,14.00
2023-04-27T03:08:56.180Z,14.00
2023-04-27T03:11:43.715Z,14.10
2023-04-27T03:14:31.557Z,14.00
2023-04-27T03:17:19.237Z,13.80
2023-04-27T03:20:10.309Z,13.80
2023-04-27T03:22:57.832Z,13.90
2023-04-27T03:25:45.483Z,13.90
2023-04-27T03:28:33.069Z,13.90
2023-04-27T03:31:20.642Z,14.00
2023-04-27T03:34:08.322Z,13.90
2023-04-27T03:36:56.383Z,13.90
2023-04-27T03:39:45.284Z,14.00
2023-04-27T03:42:32.762Z,14.00
2023-04-27T03:45:22.435Z,14.00
2023-04-27T03:48:09.938Z,13.90
2023-04-27T03:50:57.477Z,13.90
2023-04-27T03:53:44.963Z,13.90
2023-04-27T03:56:32.473Z,14.10
2023-04-27T03:59:19.991Z,14.00
2023-04-27T04:02:08.802Z,14.00
2023-04-27T04:04:56.764Z,13.90
2023-04-27T04:07:44.622Z,13.90
2023-04-27T04:10:32.250Z,13.90
2023-04-27T04:13:19.698Z,13.90
2023-04-27T04:16:10.247Z,13.90
2023-04-27T04:18:57.746Z,14.00
2023-04-27T04:21:45.243Z,14.10
2023-04-27T04:24:33.074Z,14.30
2023-04-27T04:27:20.568Z,14.30
2023-04-27T04:30:09.017Z,14.30
2023-04-27T04:32:56.565Z,14.30
2023-04-27T04:35:44.382Z,14.30
2023-04-27T04:38:33.294Z,14.50
2023-04-27T04:41:20.784Z,14.60
2023-04-27T04:44:08.292Z,14.70
2023-04-27T04:46:56.278Z,14.70
2023-04-27T04:49:43.834Z,14.70
2023-04-27T04:52:31.382Z,14.80
2023-04-27T04:55:19.318Z,14.90
2023-04-27T04:58:07.013Z,14.90
2023-04-27T05:00:54.472Z,15.00
2023-04-27T05:03:42.028Z,15.10
2023-04-27T05:06:29.720Z,15.10
2023-04-27T05:09:17.204Z,15.20
2023-04-27T05:12:05.877Z,15.20
2023-04-27T05:14:53.923Z,15.40
2023-04-27T05:17:41.595Z,15.40
2023-04-27T05:20:29.088Z,15.40
2023-04-27T05:23:16.590Z,15.40
2023-04-27T05:26:16.027Z,15.80
2023-04-27T05:29:03.549Z,15.80
2023-04-27T05:31:51.010Z,16.00
2023-04-27T05:34:38.583Z,16.10
2023-04-27T05:37:26.034Z,16.20
2023-04-27T05:40:15.867Z,16.20
2023-04-27T05:43:05.702Z,16.50
2023-04-27T05:45:54.370Z,16.60
2023-04-27T05:48:41.896Z,16.60
2023-04-27T05:51:29.436Z,16.70
2023-04-27T05:54:17.123Z,16.80
2023-04-27T05:57:04.605Z,17.00
2023-04-27T05:59:53.652Z,17.00
2023-04-27T06:02:41.411Z,17.30
2023-04-27T06:05:29.168Z,17.40
2023-04-27T06:08:16.762Z,17.40
2023-04-27T06:11:04.393Z,17.50
2023-04-27T06:13:51.992Z,17.60
2023-04-27T06:16:41.307Z,17.60
2023-04-27T06:19:28.883Z,17.70
2023-04-27T06:22:16.389Z,17.70
2023-04-27T06:25:05.498Z,17.90
2023-04-27T06:27:53.092Z,18.10
2023-04-27T06:30:40.683Z,18.10
2023-04-27T06:33:28.134Z,18.10
2023-04-27T06:36:15.657Z,18.20
2023-04-27T06:39:03.213Z,18.60
2023-04-27T06:41:50.739Z,18.60
2023-04-27T06:44:38.873Z,18.80
2023-04-27T06:47:26.511Z,18.90
2023-04-27T06:50:16.066Z,18.90
2023-04-27T06:53:03.633Z,18.70
2023-04-27T06:55:51.317Z,19.30
2023-04-27T06:58:38.804Z,19.50
2023-04-27T07:01:26.397Z,19.10
2023-04-27T07:04:14.108Z,19.60
2023-04-27T07:07:01.598Z,19.50
2023-04-27T07:09:49.076Z,19.60
2023-04-27T07:12:38.629Z,19.50
2023-04-27T07:15:26.840Z,19.40
2023-04-27T07:18:15.713Z,19.60
2023-04-27T07:21:03.277Z,19.10
2023-04-27T07:23:50.866Z,19.20
2023-04-27T07:26:38.350Z,19.50
2023-04-27T07:29:28.549Z,19.40
2023-04-27T07:32:16.755Z,19.50
2023-04-27T07:35:06.059Z,19.80
2023-04-27T07:37:53.561Z,20.60
2023-04-27T07:40:42.675Z,20.50
2023-04-27T07:43:32.641Z,20.60
2023-04-27T07:46:20.942Z,20.30
2023-04-27T07:49:08.485Z,20.70
2023-04-27T07:51:56.492Z,20.60
2023-04-27T07:54:43.913Z,20.70
2023-04-27T07:57:31.835Z,21.10
2023-04-27T08:00:20.643Z,20.90
2023-04-27T08:03:08.647Z,21.30
2023-04-27T08:05:56.723Z,21.80
2023-04-27T08:08:44.606Z,21.90
2023-04-27T08:11:32.577Z,21.70
2023-04-27T08:14:20.104Z,21.90
2023-04-27T08:17:07.699Z,22.00
2023-04-27T08:19:55.376Z,22.30
2023-04-27T08:22:44.169Z,22.50
2023-04-27T08:25:32.822Z,22.50
2023-04-27T08:28:20.360Z,22.80
2023-04-27T08:31:08.045Z,23.10
2023-04-27T08:33:58.754Z,22.90
2023-04-27T08:36:46.354Z,23.00
2023-04-27T08:39:33.972Z,23.30
2023-04-27T08:42:21.766Z,23.30
2023-04-27T08:45:09.982Z,23.10
2023-04-27T08:47:57.514Z,23.30
2023-04-27T08:50:46.041Z,23.90
2023-04-27T08:53:34.120Z,23.80
2023-04-27T08:56:25.272Z,24.20
2023-04-27T08:59:17.881Z,24.20
2023-04-27T09:02:06.214Z,24.30
2023-04-27T09:04:54.044Z,24.50
2023-04-27T09:07:41.870Z,24.50
2023-04-27T09:10:29.854Z,24.40
2023-04-27T09:13:17.934Z,25.10
2023-04-27T09:16:06.034Z,25.00
2023-04-27T09:18:53.943Z,25.20
2023-04-27T09:21:43.354Z,24.30
2023-04-27T09:24:30.972Z,24.80
2023-04-27T09:27:22.322Z,24.60
2023-04-27T09:30:14.878Z,24.30
2023-04-27T09:33:02.829Z,23.90
2023-04-27T09:35:51.150Z,23.80
2023-04-27T09:38:38.923Z,23.60
2023-04-27T09:41:28.339Z,24.00
2023-04-27T09:44:17.282Z,24.60
2023-04-27T09:47:06.434Z,24.60
2023-04-27T09:49:53.917Z,24.80
2023-04-27T09:52:42.273Z,23.80
2023-04-27T09:55:41.185Z,24.20
2023-04-27T09:59:07.902Z,24.10
2023-04-27T10:02:07.308Z,24.50
2023-04-27T10:05:36.033Z,23.90
2023-04-27T10:08:23.690Z,24.00
2023-04-27T10:11:23.089Z,23.30
2023-04-27T10:14:18.466Z,23.60
2023-04-27T10:17:11.961Z,24.10
2023-04-27T10:20:09.974Z,24.40
2023-04-27T10:22:58.773Z,25.10
2023-04-27T10:25:47.580Z,25.30
2023-04-27T10:28:40.387Z,25.60
2023-04-27T10:31:29.519Z,25.20
2023-04-27T10:34:21.302Z,25.00
2023-04-27T10:37:12.580Z,25.50
2023-04-27T10:40:08.355Z,25.10
2023-04-27T10:42:56.970Z,25.30
2023-04-27T10:45:46.311Z,24.70
2023-04-27T10:48:34.086Z,25.30
2023-04-27T10:51:21.652Z,25.00
2023-04-27T10:54:09.529Z,25.10
2023-04-27T10:57:10.983Z,25.30
2023-04-27T10:59:58.761Z,24.80
2023-04-27T11:02:46.415Z,24.90
2023-04-27T11:05:33.984Z,25.50
2023-04-27T11:08:21.502Z,25.50
2023-04-27T11:11:16.994Z,25.80
2023-04-27T11:14:04.602Z,25.90
2023-04-27T11:16:52.216Z,25.80
2023-04-27T11:19:49.343Z,25.50
2023-04-27T11:22:47.107Z,25.20
2023-04-27T11:25:34.810Z,24.80
2023-04-27T11:28:24.571Z,23.30
2023-04-27T11:31:12.506Z,22.10
2023-04-27T11:34:00.375Z,22.80
2023-04-27T11:37:17.499Z,22.40
2023-04-27T11:40:08.701Z,21.80
2023-04-27T11:43:03.233Z,23.80
2023-04-27T11:45:50.850Z,24.80
2023-04-27T11:48:40.060Z,24.90
2023-04-27T11:51:30.785Z,25.60
2023-04-27T11:54:18.282Z,25.30
2023-04-27T11:57:08.318Z,25.70
2023-04-27T12:00:01.549Z,26.30
2023-04-27T12:02:49.266Z,26.20
2023-04-27T12:05:47.427Z,26.10
2023-04-27T12:08:35.003Z,25.70
2023-04-27T12:11:22.948Z,25.70
2023-04-27T12:14:10.819Z,25.10
2023-04-27T12:16:58.369Z,24.90
2023-04-27T12:19:46.002Z,24.40
2023-04-27T12:22:33.498Z,25.20
2023-04-27T12:25:21.630Z,25.50
2023-04-27T12:28:09.097Z,25.50
2023-04-27T12:30:56.750Z,25.30
2023-04-27T12:33:44.337Z,25.60
2023-04-27T12:36:32.834Z,25.70
2023-04-27T12:39:25.444Z,24.50
2023-04-27T12:42:13.057Z,24.80
2023-04-27T12:45:00.537Z,24.90
2023-04-27T12:48:01.669Z,25.10
2023-04-27T12:50:50.588Z,25.50
2023-04-27T12:53:38.089Z,25.50
2023-04-27T12:56:25.739Z,25.80
2023-04-27T12:59:13.373Z,24.10
2023-04-27T13:02:06.216Z,24.50
2023-04-27T13:04:53.824Z,25.10
2023-04-27T13:07:41.359Z,25.40
2023-04-27T13:10:29.728Z,26.00
2023-04-27T13:13:17.472Z,26.10
2023-04-27T13:16:05.058Z,26.40
2023-04-27T13:18:53.836Z,26.40
2023-04-27T13:21:41.564Z,26.40
2023-04-27T13:24:29.500Z,26.70
2023-04-27T13:27:17.360Z,26.30
2023-04-27T13:30:05.673Z,26.40
2023-04-27T13:32:53.474Z,26.30
2023-04-27T13:35:42.076Z,25.70
2023-04-27T13:38:29.541Z,25.80
2023-04-27T13:41:17.199Z,26.00
2023-04-27T13:44:04.795Z,26.30
2023-04-27T13:46:52.334Z,26.30
2023-04-27T13:49:39.876Z,25.20
2023-04-27T13:52:27.346Z,25.10
2023-04-27T13:55:14.821Z,25.40
2023-04-27T13:58:02.411Z,25.40
2023-04-27T14:00:52.161Z,26.10
2023-04-27T14:03:41.882Z,26.20
2023-04-27T14:06:32.190Z,25.90
2023-04-27T14:09:19.703Z,26.50
2023-04-27T14:12:08.711Z,26.70
2023-04-27T14:14:58.390Z,26.50
2023-04-27T14:17:46.089Z,26.60
2023-04-27T14:20:35.263Z,26.30
2023-04-27T14:23:22.801Z,26.60
2023-04-27T14:26:10.383Z,26.20
2023-04-27T14:28:58.877Z,26.40
2023-04-27T14:31:48.322Z,26.30
2023-04-27T14:34:36.714Z,26.40
2023-04-27T14:37:24.279Z,26.00
2023-04-27T14:40:12.455Z,26.50
2023-04-27T14:43:00.327Z,26.50
2023-04-27T14:45:53.946Z,26.90
2023-04-27T14:48:43.177Z,26.50
2023-04-27T14:51:32.620Z,26.60
2023-04-27T14:54:20.349Z,26.60
2023-04-27T14:57:08.633Z,26.30
2023-04-27T14:59:57.029Z,26.30
2023-04-27T15:02:44.646Z,26.60
2023-04-27T15:05:32.233Z,26.60
2023-04-27T15:08:20.077Z,26.40
2023-04-27T15:11:10.071Z,26.30
2023-04-27T15:13:57.659Z,26.80
2023-04-27T15:16:45.261Z,26.80
2023-04-27T15:19:32.888Z,26.90
2023-04-27T15:22:21.042Z,27.00
2023-04-27T15:25:09.272Z,26.80
2023-04-27T15:27:56.960Z,26.70
2023-04-27T15:30:45.657Z,26.40
2023-04-27T15:33:33.345Z,26.10
2023-04-27T15:36:23.046Z,26.10
2023-04-27T15:39:10.720Z,26.40
2023-04-27T15:41:59.710Z,26.30
2023-04-27T15:44:47.342Z,26.00
2023-04-27T15:47:34.887Z,25.80
2023-04-27T15:50:22.916Z,25.50
2023-04-27T15:53:10.396Z,25.40
2023-04-27T15:55:57.867Z,24.90
2023-04-27T15:58:46.356Z,25.30
2023-04-27T16:01:33.903Z,25.30
2023-04-27T16:04:21.491Z,25.00
2023-04-27T16:07:09.297Z,25.30
2023-04-27T16:09:57.926Z,25.50
2023-04-27T16:12:45.527Z,25.50
2023-04-27T16:15:33.039Z,25.40
2023-04-27T16:18:20.495Z,25.20
2023-04-27T16:21:07.992Z,25.60
2023-04-27T16:23:58.317Z,25.70
2023-04-27T16:26:46.886Z,25.70
2023-04-27T16:29:34.627Z,25.40
2023-04-27T16:32:22.335Z,25.10
2023-04-27T16:35:10.151Z,25.00
2023-04-27T16:37:57.747Z,24.40
2023-04-27T16:40:45.619Z,24.40
2023-04-27T16:43:34.105Z,24.40
2023-04-27T16:46:22.386Z,24.00
2023-04-27T16:49:10.772Z,24.40
2023-04-27T16:51:58.301Z,24.40
2023-04-27T16:54:46.144Z,24.50
2023-04-27T16:57:33.709Z,24.50
2023-04-27T17:00:21.462Z,24.00
2023-04-27T17:03:09.807Z,24.40
2023-04-27T17:05:57.369Z,24.40
2023-04-27T17:08:44.860Z,24.30
2023-04-27T17:11:32.386Z,24.30
2023-04-27T17:14:20.914Z,24.40
2023-04-27T17:17:10.691Z,24.20
2023-04-27T17:19:58.424Z,24.40
2023-04-27T17:22:46.487Z,24.20
2023-04-27T17:25:34.210Z,24.00
2023-04-27T17:28:22.612Z,23.80
2023-04-27T17:31:10.120Z,23.70
2023-04-27T17:33:57.683Z,23.60
2023-04-27T17:36:46.200Z,23.50
2023-04-27T17:39:33.616Z,23.30
2023-04-27T17:42:21.235Z,23.20
2023-04-27T17:45:09.623Z,23.00
2023-04-27T17:47:57.257Z,22.80
2023-04-27T17:50:44.752Z,22.70
2023-04-27T17:53:32.215Z,22.60
2023-04-27T17:56:19.672Z,22.40
2023-04-27T17:59:08.006Z,22.20
2023-04-27T18:01:55.853Z,22.00
2023-04-27T18:04:43.589Z,21.80
2023-04-27T18:07:31.119Z,21.60
2023-04-27T18:10:18.625Z,21.40
2023-04-27T18:13:06.192Z,21.20
2023-04-27T18:15:53.719Z,21.00
2023-04-27T18:18:41.528Z,20.80
2023-04-27T18:21:30.042Z,20.50
2023-04-27T18:24:17.626Z,20.30
2023-04-27T18:27:05.634Z,20.10
2023-04-27T18:29:53.400Z,19.90
2023-04-27T18:32:40.925Z,19.80
2023-04-27T18:35:28.602Z,19.60
2023-04-27T18:38:16.167Z,19.40
2023-04-27T18:41:04.883Z,19.20
2023-04-27T18:43:52.739Z,19.00
2023-04-27T18:46:40.246Z,18.80
2023-04-27T18:49:27.808Z,18.80
2023-04-27T18:52:15.435Z,18.60
2023-04-27T18:55:03.908Z,18.50
2023-04-27T18:57:51.407Z,18.40
2023-04-27T19:00:39.087Z,18.30
2023-04-27T19:03:26.964Z,18.10
2023-04-27T19:06:15.763Z,18.00
2023-04-27T19:09:03.315Z,17.90
2023-04-27T19:12:01.987Z,17.90
2023-04-27T19:14:52.049Z,17.80
2023-04-27T19:17:40.806Z,17.70
2023-04-27T19:20:28.387Z,17.70
2023-04-27T19:23:19.238Z,17.70
2023-04-27T19:26:13.261Z,17.60
2023-04-27T19:29:01.434Z,17.60
2023-04-27T19:31:48.949Z,17.60
2023-04-27T19:34:36.998Z,17.60
2023-04-27T19:37:25.147Z,17.60
2023-04-27T19:40:13.447Z,17.60
2023-04-27T19:43:01.305Z,17.40
2023-04-27T19:45:51.758Z,17.30
2023-04-27T19:48:39.244Z,16.70
2023-04-27T19:51:27.421Z,17.20
2023-04-27T19:54:15.056Z,17.40
2023-04-27T19:57:03.979Z,17.40
2023-04-27T19:59:51.542Z,17.30
2023-04-27T20:02:39.347Z,17.50
2023-04-27T20:05:27.573Z,17.50
2023-04-27T20:08:15.276Z,17.50
2023-04-27T20:11:02.819Z,17.40
2023-04-27T20:13:50.262Z,17.30
2023-04-27T20:16:37.922Z,17.30
2023-04-27T20:19:25.525Z,17.10
2023-04-27T20:22:13.429Z,17.20
2023-04-27T20:25:00.887Z,17.00
2023-04-27T20:27:48.645Z,17.00
2023-04-27T20:30:36.664Z,17.00
2023-04-27T20:33:24.162Z,17.00
2023-04-27T20:36:17.318Z,16.90
2023-04-27T20:39:05.680Z,16.80
2023-04-27T20:41:53.112Z,16.70
2023-04-27T20:44:40.584Z,16.70
2023-04-27T20:47:28.021Z,16.70
2023-04-27T20:50:15.668Z,16.60
2023-04-27T20:53:03.214Z,16.50
2023-04-27T20:55:50.809Z,16.50
2023-04-27T20:58:38.268Z,16.50
2023-04-27T21:01:26.751Z,16.40
2023-04-27T21:04:14.582Z,16.40
2023-04-27T21:07:02.719Z,16.40
2023-04-27T21:09:50.348Z,16.40
2023-04-27T21:12:38.009Z,16.30
2023-04-27T21:15:25.647Z,16.40
2023-04-27T21:18:22.357Z,16.30
2023-04-27T21:21:16.318Z,16.20
2023-04-27T21:24:08.175Z,16.20
2023-04-27T21:26:56.075Z,16.10
2023-04-27T21:29:43.615Z,16.10
2023-04-27T21:32:31.233Z,16.00
2023-04-27T21:35:18.880Z,15.90
2023-04-27T21:38:06.534Z,15.90
2023-04-27T21:40:53.970Z,15.90
2023-04-27T21:43:42.211Z,16.30
2023-04-27T21:46:29.799Z,16.30
2023-04-27T21:49:17.349Z,16.50
2023-04-27T21:52:05.163Z,16.50
2023-04-27T21:54:52.776Z,16.50
2023-04-27T21:57:40.273Z,16.40
2023-04-27T22:00:27.735Z,16.40
2023-04-27T22:03:17.873Z,16.40
2023-04-27T22:06:06.411Z,16.80
2023-04-27T22:08:54.240Z,16.70
2023-04-27T22:11:41.692Z,16.80
2023-04-27T22:14:31.416Z,16.80
2023-04-27T22:17:18.861Z,16.70
2023-04-27T22:20:12.748Z,16.60
2023-04-27T22:23:01.308Z,16.60
2023-04-27T22:25:48.785Z,16.50
2023-04-27T22:28:36.328Z,16.70
2023-04-27T22:31:25.049Z,16.60
2023-04-27T22:34:13.862Z,16.80
2023-04-27T22:37:02.773Z,16.70
2023-04-27T22:39:50.711Z,16.70
2023-04-27T22:42:38.264Z,16.60
2023-04-27T22:45:25.804Z,16.50
2023-04-27T22:48:13.305Z,16.60
2023-04-27T22:51:00.740Z,16.50
2023-04-27T22:53:49.569Z,16.50
2023-04-27T22:56:37.043Z,16.70
2023-04-27T22:59:24.950Z,16.60
2023-04-27T23:02:12.626Z,16.60
2023-04-27T23:05:00.224Z,16.60
2023-04-27T23:07:47.947Z,16.40
2023-04-27T23:10:38.944Z,16.20
2023-04-27T23:13:29.696Z,16.30
2023-04-27T23:16:17.329Z,16.40
2023-04-27T23:19:04.913Z,16.40
2023-04-27T23:21:52.484Z,16.30
2023-04-27T23:24:39.971Z,16.20
2023-04-27T23:27:29.045Z,16.20
2023-04-27T23:30:16.541Z,16.10
2023-04-27T23:33:04.148Z,16.30
2023-04-27T23:35:51.631Z,16.10
2023-04-27T23:38:39.172Z,15.80
2023-04-27T23:41:26.648Z,15.60
2023-04-27T23:44:14.493Z,15.50
2023-04-27T23:47:02.340Z,15.50
2023-04-27T23:49:49.832Z,15.60
2023-04-27T23:52:37.382Z,15.50
2023-04-27T23:55:24.930Z,15.40
2023-04-27T23:58:12.409Z,15.40
